KNYG/NYG METAR and TAF weather

Enter ICAO airport designator
Station Type Date Time Source
KNYG METAR 2021/02/25 16:56 UTC NOAA

KNYG 251656Z 36006KT 10SM CLR 12/M06 A3024 RMK AO2 SLP242 T01171056 $


Station Type Date Time Source
KNYG Decoded METAR 2021/02/25 16:56 UTC NOAA

QUANTICO MARINE CORPS AIRFAC, VA, United States (KNYG) 38-30N 077-18W 3M
Feb 25, 2021 - 11:56 AM EST / 2021.02.25 1656 UTC
Wind: from the N (360 degrees) at 7 MPH (6 KT):0
Visibility: 10 mile(s):0
Sky conditions: clear
Temperature: 53.1 F (11.7 C)
Dew Point: 21.9 F (-5.6 C)
Relative Humidity: 29%
Pressure (altimeter): 30.24 in. Hg (1024 hPa)
ob: KNYG 251656Z 36006KT 10SM CLR 12/M06 A3024 RMK AO2 SLP242 T01171056
cycle: 17

Station Type Date Time Source
KNYG TAF 2021/02/25 15:57 UTC NOAA

TAF KNYG 2515/2615 31015G25KT 9999 SKC QNH3023INS
BECMG 2505/2507 00005KT 9999 BKN035 QNH3035INS
FM251400 06005G15KT 9999 FEW050 QNH3047INS T12/2520Z T01/2611Z

Example: see airport list